createdAt,value
2023-04-24T00:00:06.406Z,67.11
2023-04-24T00:02:35.700Z,66.75
2023-04-24T00:05:03.982Z,67.05
2023-04-24T00:07:31.825Z,66.88
2023-04-24T00:09:59.808Z,66.89
2023-04-24T00:12:28.226Z,66.89
2023-04-24T00:14:55.778Z,66.94
2023-04-24T00:17:23.444Z,66.76
2023-04-24T00:19:59.129Z,67.00
2023-04-24T00:22:26.874Z,67.09
2023-04-24T00:24:54.578Z,66.77
2023-04-24T00:27:22.232Z,66.95
2023-04-24T00:29:49.983Z,67.11
2023-04-24T00:32:18.975Z,66.71
2023-04-24T00:34:46.851Z,66.81
2023-04-24T00:37:16.088Z,66.90
2023-04-24T00:39:43.996Z,67.09
2023-04-24T00:42:12.269Z,66.94
2023-04-24T00:44:40.526Z,66.83
2023-04-24T00:47:08.200Z,67.05
2023-04-24T00:49:35.843Z,66.83
2023-04-24T00:52:03.496Z,66.76
2023-04-24T00:54:32.458Z,66.91
2023-04-24T00:57:00.157Z,66.76
2023-04-24T00:59:27.815Z,66.49
2023-04-24T01:01:55.882Z,66.74
2023-04-24T01:04:23.932Z,66.66
2023-04-24T01:06:53.519Z,66.57
2023-04-24T01:09:22.456Z,67.01
2023-04-24T01:11:52.149Z,66.61
2023-04-24T01:14:19.782Z,66.92
2023-04-24T01:16:47.572Z,66.69
2023-04-24T01:19:17.989Z,66.99
2023-04-24T01:21:46.423Z,66.57
2023-04-24T01:24:15.782Z,66.58
2023-04-24T01:26:43.463Z,66.43
2023-04-24T01:29:11.433Z,66.88
2023-04-24T01:31:39.086Z,66.71
2023-04-24T01:34:07.468Z,66.81
2023-04-24T01:36:37.137Z,66.61
2023-04-24T01:39:05.157Z,66.60
2023-04-24T01:41:34.751Z,66.90
2023-04-24T01:44:02.582Z,66.59
2023-04-24T01:46:30.447Z,66.53
2023-04-24T01:48:58.713Z,66.84
2023-04-24T01:51:26.284Z,66.57
2023-04-24T01:53:54.222Z,66.46
2023-04-24T01:56:22.218Z,66.60
2023-04-24T01:58:52.494Z,66.68
2023-04-24T02:01:21.113Z,66.80
2023-04-24T02:03:49.009Z,66.60
2023-04-24T02:06:16.775Z,66.62
2023-04-24T02:08:44.517Z,66.61
2023-04-24T02:11:12.170Z,66.41
2023-04-24T02:13:39.773Z,66.63
2023-04-24T02:16:08.879Z,66.48
2023-04-24T02:18:36.480Z,66.29
2023-04-24T02:21:04.183Z,66.66
2023-04-24T02:23:31.785Z,66.82
2023-04-24T02:25:59.384Z,66.40
2023-04-24T02:28:27.025Z,66.69
2023-04-24T02:30:54.716Z,66.47
2023-04-24T02:33:23.662Z,66.44
2023-04-24T02:35:51.276Z,66.47
2023-04-24T02:38:18.968Z,66.67
2023-04-24T02:40:46.635Z,66.63
2023-04-24T02:43:14.245Z,66.71
2023-04-24T02:45:41.921Z,66.74
2023-04-24T02:48:09.584Z,66.22
2023-04-24T02:50:38.602Z,66.81
2023-04-24T02:53:06.421Z,66.44
2023-04-24T02:55:34.226Z,66.23
2023-04-24T02:58:01.864Z,66.35
2023-04-24T03:00:29.528Z,66.45
2023-04-24T03:02:57.321Z,66.30
2023-04-24T03:05:25.027Z,66.26
2023-04-24T03:07:54.264Z,66.18
2023-04-24T03:10:23.511Z,66.13
2023-04-24T03:12:51.398Z,66.59
2023-04-24T03:15:19.000Z,66.50
2023-04-24T03:17:46.694Z,66.29
2023-04-24T03:20:14.544Z,66.56
2023-04-24T03:22:42.186Z,66.37
2023-04-24T03:25:11.766Z,66.67
2023-04-24T03:27:40.280Z,66.44
2023-04-24T03:30:09.873Z,66.44
2023-04-24T03:32:37.556Z,66.76
2023-04-24T03:35:05.594Z,66.56
2023-04-24T03:37:33.227Z,66.42
2023-04-24T03:40:00.815Z,66.48
2023-04-24T03:42:29.761Z,66.38
2023-04-24T03:44:57.535Z,66.19
2023-04-24T03:47:25.269Z,66.38
2023-04-24T03:49:53.256Z,66.28
2023-04-24T03:52:20.864Z,66.60
2023-04-24T03:54:48.505Z,66.54
2023-04-24T03:57:16.151Z,66.43
2023-04-24T03:59:45.231Z,66.41
2023-04-24T04:02:13.033Z,66.72
2023-04-24T04:04:40.806Z,66.41
2023-04-24T04:07:08.820Z,66.34
2023-04-24T04:09:36.445Z,66.15
2023-04-24T04:12:04.127Z,66.06
2023-04-24T04:14:31.789Z,66.10
2023-04-24T04:17:00.712Z,66.56
2023-04-24T04:19:28.501Z,66.28
2023-04-24T04:21:57.212Z,66.48
2023-04-24T04:24:25.017Z,66.54
2023-04-24T04:26:53.159Z,66.29
2023-04-24T04:29:20.922Z,66.47
2023-04-24T04:31:48.560Z,66.17
2023-04-24T04:34:17.536Z,66.58
2023-04-24T04:36:45.319Z,66.27
2023-04-24T04:39:15.316Z,66.33
2023-04-24T04:41:43.077Z,66.57
2023-04-24T04:44:10.867Z,66.56
2023-04-24T04:46:39.512Z,66.52
2023-04-24T04:49:07.240Z,66.73
2023-04-24T04:51:36.278Z,66.53
2023-04-24T04:54:04.228Z,66.50
2023-04-24T04:56:32.004Z,66.31
2023-04-24T04:59:00.310Z,66.67
2023-04-24T05:01:28.478Z,66.16
2023-04-24T05:03:56.462Z,66.24
2023-04-24T05:06:24.678Z,66.30
2023-04-24T05:08:57.939Z,66.31
2023-04-24T05:11:25.538Z,66.17
2023-04-24T05:13:53.126Z,66.30
2023-04-24T05:16:20.823Z,66.19
2023-04-24T05:18:48.452Z,66.24
2023-04-24T05:21:16.048Z,66.46
2023-04-24T05:23:43.646Z,66.19
2023-04-24T05:26:12.625Z,66.09
2023-04-24T05:28:40.286Z,66.21
2023-04-24T05:31:07.875Z,66.21
2023-04-24T05:33:35.505Z,66.01
2023-04-24T05:36:03.162Z,66.13
2023-04-24T05:38:30.895Z,66.15
2023-04-24T05:40:58.507Z,66.27
2023-04-24T05:43:27.588Z,66.10
2023-04-24T05:45:56.297Z,66.09
2023-04-24T05:48:24.368Z,66.30
2023-04-24T05:50:53.360Z,66.42
2023-04-24T05:53:21.114Z,66.14
2023-04-24T05:55:49.550Z,66.00
2023-04-24T05:58:17.270Z,66.02
2023-04-24T06:00:47.693Z,65.82
2023-04-24T06:03:16.685Z,66.42
2023-04-24T06:05:44.627Z,66.02
2023-04-24T06:08:12.436Z,65.83
2023-04-24T06:10:40.277Z,66.23
2023-04-24T06:13:07.923Z,66.00
2023-04-24T06:15:35.870Z,65.95
2023-04-24T06:18:05.110Z,66.30
2023-04-24T06:20:32.865Z,66.05
2023-04-24T06:23:00.442Z,65.95
2023-04-24T06:25:28.630Z,65.90
2023-04-24T06:27:56.963Z,65.77
2023-04-24T06:30:25.048Z,65.80
2023-04-24T06:32:52.954Z,65.66
2023-04-24T06:35:22.035Z,66.03
2023-04-24T06:37:49.806Z,65.64
2023-04-24T06:40:19.492Z,65.76
2023-04-24T06:42:47.156Z,65.91
2023-04-24T06:45:14.781Z,65.94
2023-04-24T06:47:42.411Z,65.72
2023-04-24T06:50:11.022Z,66.11
2023-04-24T06:52:40.041Z,65.68
2023-04-24T06:55:09.346Z,65.95
2023-04-24T06:57:36.945Z,65.59
2023-04-24T07:00:06.029Z,65.56
2023-04-24T07:02:33.670Z,65.44
2023-04-24T07:05:02.203Z,65.43
2023-04-24T07:07:29.798Z,65.67
2023-04-24T07:09:59.365Z,65.88
2023-04-24T07:12:27.297Z,65.93
2023-04-24T07:14:55.286Z,65.93
2023-04-24T07:17:22.968Z,65.77
2023-04-24T07:19:51.027Z,65.78
2023-04-24T07:22:19.138Z,65.83
2023-04-24T07:24:46.853Z,65.82
2023-04-24T07:27:16.351Z,65.45
2023-04-24T07:29:45.971Z,65.45
2023-04-24T07:32:13.856Z,65.47
2023-04-24T07:34:41.663Z,65.45
2023-04-24T07:37:09.242Z,65.83
2023-04-24T07:39:36.805Z,65.68
2023-04-24T07:42:05.295Z,65.20
2023-04-24T07:44:34.279Z,65.65
2023-04-24T07:47:01.862Z,65.39
2023-04-24T07:49:29.820Z,65.54
2023-04-24T07:51:57.401Z,65.51
2023-04-24T07:54:25.057Z,65.18
2023-04-24T07:56:52.722Z,65.24
2023-04-24T07:59:20.338Z,65.18
2023-04-24T08:01:49.245Z,65.45
2023-04-24T08:04:17.285Z,65.85
2023-04-24T08:06:45.089Z,65.91
2023-04-24T08:09:12.942Z,65.79
2023-04-24T08:11:40.686Z,65.92
2023-04-24T08:14:08.756Z,65.46
2023-04-24T08:16:36.949Z,65.70
2023-04-24T08:19:06.746Z,65.39
2023-04-24T08:21:35.238Z,65.02
2023-04-24T08:24:06.494Z,64.75
2023-04-24T08:26:34.286Z,64.59
2023-04-24T08:29:02.177Z,64.68
2023-04-24T08:31:30.191Z,64.36
2023-04-24T08:33:57.931Z,64.44
2023-04-24T08:36:33.173Z,63.87
2023-04-24T08:39:11.705Z,63.60
2023-04-24T08:41:40.311Z,63.46
2023-04-24T08:44:10.614Z,63.74
2023-04-24T08:46:39.286Z,63.47
2023-04-24T08:49:07.691Z,63.53
2023-04-24T08:51:39.119Z,63.94
2023-04-24T08:54:08.241Z,64.13
2023-04-24T08:56:40.272Z,64.30
2023-04-24T08:59:08.139Z,63.95
2023-04-24T09:01:37.335Z,64.09
2023-04-24T09:04:06.356Z,64.26
2023-04-24T09:06:36.395Z,63.89
2023-04-24T09:09:05.116Z,64.04
2023-04-24T09:11:33.989Z,63.74
2023-04-24T09:14:03.041Z,63.65
2023-04-24T09:16:31.046Z,63.57
2023-04-24T09:18:58.861Z,63.80
2023-04-24T09:21:33.459Z,63.50
2023-04-24T09:24:03.914Z,63.21
2023-04-24T09:26:35.766Z,63.24
2023-04-24T09:29:04.185Z,63.26
2023-04-24T09:31:33.385Z,63.30
2023-04-24T09:34:05.735Z,63.90
2023-04-24T09:36:38.179Z,63.81
2023-04-24T09:39:09.421Z,64.22
2023-04-24T09:41:37.878Z,64.58
2023-04-24T09:44:15.095Z,64.32
2023-04-24T09:46:44.068Z,64.34
2023-04-24T09:49:14.734Z,64.55
2023-04-24T09:51:42.844Z,64.61
2023-04-24T09:54:21.837Z,64.66
2023-04-24T09:56:51.767Z,64.60
2023-04-24T09:59:21.338Z,64.56
2023-04-24T10:01:51.877Z,64.52
2023-04-24T10:04:22.888Z,64.38
2023-04-24T10:06:51.649Z,64.26
2023-04-24T10:09:22.210Z,64.25
2023-04-24T10:11:51.584Z,64.06
2023-04-24T10:14:21.615Z,64.12
2023-04-24T10:16:50.064Z,64.28
2023-04-24T10:19:21.301Z,63.62
2023-04-24T10:21:49.395Z,64.09
2023-04-24T10:24:18.292Z,64.23
2023-04-24T10:26:49.235Z,64.42
2023-04-24T10:29:20.666Z,64.17
2023-04-24T10:31:48.837Z,64.08
2023-04-24T10:34:19.073Z,64.22
2023-04-24T10:36:51.128Z,64.36
2023-04-24T10:39:19.579Z,63.78
2023-04-24T10:41:50.909Z,63.55
2023-04-24T10:44:18.789Z,63.89
2023-04-24T10:46:48.554Z,63.71
2023-04-24T10:49:16.394Z,63.82
2023-04-24T10:51:49.633Z,63.90
2023-04-24T10:54:28.497Z,63.74
2023-04-24T10:57:29.743Z,63.72
2023-04-24T11:00:16.265Z,63.65
2023-04-24T11:02:50.358Z,63.62
2023-04-24T11:05:18.891Z,63.52
2023-04-24T11:08:17.863Z,63.61
2023-04-24T11:10:49.506Z,63.44
2023-04-24T11:13:19.325Z,63.39
2023-04-24T11:15:46.897Z,63.26
2023-04-24T11:18:16.416Z,63.27
2023-04-24T11:20:45.268Z,63.21
2023-04-24T11:23:15.076Z,63.27
2023-04-24T11:25:43.785Z,63.08
2023-04-24T11:28:18.343Z,63.16
2023-04-24T11:30:45.980Z,63.29
2023-04-24T11:33:13.913Z,63.12
2023-04-24T11:35:42.666Z,63.16
2023-04-24T11:38:23.965Z,63.03
2023-04-24T11:40:53.745Z,63.02
2023-04-24T11:43:23.693Z,62.91
2023-04-24T11:45:51.738Z,62.90
2023-04-24T11:48:22.568Z,62.72
2023-04-24T11:50:50.895Z,62.83
2023-04-24T11:53:21.459Z,62.80
2023-04-24T11:55:49.242Z,62.80
2023-04-24T11:58:17.069Z,62.69
2023-04-24T12:00:46.623Z,62.66
2023-04-24T12:03:14.963Z,62.53
2023-04-24T12:05:43.195Z,62.57
2023-04-24T12:08:10.950Z,62.48
2023-04-24T12:10:38.779Z,62.46
2023-04-24T12:13:06.532Z,62.41
2023-04-24T12:15:34.337Z,62.37
2023-04-24T12:18:03.533Z,62.01
2023-04-24T12:20:32.739Z,59.40
2023-04-24T12:23:02.291Z,60.85
2023-04-24T12:25:31.698Z,59.67
2023-04-24T12:28:12.533Z,59.23
2023-04-24T12:30:43.842Z,58.18
2023-04-24T12:33:13.173Z,57.92
2023-04-24T12:35:42.757Z,57.69
2023-04-24T12:38:13.445Z,57.51
2023-04-24T12:40:42.367Z,57.96
2023-04-24T12:43:16.448Z,58.06
2023-04-24T12:45:44.242Z,57.81
2023-04-24T12:48:14.976Z,57.74
2023-04-24T12:50:45.488Z,58.29
2023-04-24T12:53:13.999Z,58.76
2023-04-24T12:55:41.786Z,58.97
2023-04-24T12:58:09.887Z,58.81
2023-04-24T13:00:38.375Z,58.89
2023-04-24T13:03:07.134Z,58.98
2023-04-24T13:05:37.014Z,59.09
2023-04-24T13:08:05.905Z,58.69
2023-04-24T13:10:33.587Z,59.56
2023-04-24T13:13:01.564Z,59.57
2023-04-24T13:15:29.427Z,59.16
2023-04-24T13:17:57.112Z,59.49
2023-04-24T13:20:24.839Z,59.57
2023-04-24T13:22:53.863Z,59.57
2023-04-24T13:25:23.746Z,59.89
2023-04-24T13:27:51.871Z,60.05
2023-04-24T13:30:19.856Z,60.28
2023-04-24T13:32:48.410Z,60.41
2023-04-24T13:35:16.470Z,60.29
2023-04-24T13:37:44.592Z,60.48
2023-04-24T13:40:14.162Z,60.35
2023-04-24T13:42:42.613Z,60.09
2023-04-24T13:45:23.818Z,59.95
2023-04-24T13:47:53.057Z,59.81
2023-04-24T13:50:21.497Z,59.81
2023-04-24T13:52:49.568Z,59.58
2023-04-24T13:55:19.371Z,59.93
2023-04-24T13:57:48.336Z,59.67
2023-04-24T14:00:18.018Z,59.63
2023-04-24T14:02:46.248Z,59.80
2023-04-24T14:05:16.753Z,59.62
2023-04-24T14:07:44.403Z,59.73
2023-04-24T14:10:12.914Z,59.46
2023-04-24T14:12:41.996Z,59.60
2023-04-24T14:15:11.332Z,59.41
2023-04-24T14:17:39.518Z,59.23
2023-04-24T14:20:10.420Z,58.84
2023-04-24T14:22:38.965Z,59.30
2023-04-24T14:25:08.165Z,59.45
2023-04-24T14:27:37.101Z,59.40
2023-04-24T14:30:09.580Z,59.50
2023-04-24T14:32:37.903Z,59.13
2023-04-24T14:35:07.250Z,59.03
2023-04-24T14:37:37.154Z,59.10
2023-04-24T14:42:39.379Z,59.13
2023-04-24T14:45:10.489Z,59.27
2023-04-24T14:47:39.838Z,59.12
2023-04-24T14:50:10.328Z,59.07
2023-04-24T14:52:38.780Z,59.23
2023-04-24T14:55:07.992Z,59.28
2023-04-24T14:57:37.198Z,59.22
2023-04-24T15:00:07.142Z,59.19
2023-04-24T15:02:38.746Z,59.02
2023-04-24T15:05:08.575Z,59.20
2023-04-24T15:07:37.511Z,59.25
2023-04-24T15:10:06.636Z,59.29
2023-04-24T15:12:34.485Z,59.29
2023-04-24T15:15:02.929Z,58.45
2023-04-24T15:17:30.922Z,58.53
2023-04-24T15:20:00.897Z,59.12
2023-04-24T15:22:29.047Z,59.26
2023-04-24T15:24:57.287Z,59.15
2023-04-24T15:27:25.529Z,59.05
2023-04-24T15:29:54.524Z,59.00
2023-04-24T15:32:22.919Z,59.12
2023-04-24T15:35:01.019Z,59.10
2023-04-24T15:37:37.465Z,59.08
2023-04-24T15:40:08.545Z,59.07
2023-04-24T15:42:36.598Z,59.20
2023-04-24T15:45:05.681Z,59.17
2023-04-24T15:47:34.622Z,59.05
2023-04-24T15:50:02.968Z,59.33
2023-04-24T15:52:30.940Z,59.37
2023-04-24T15:55:00.649Z,59.35
2023-04-24T15:57:29.178Z,59.56
2023-04-24T15:59:57.495Z,59.60
2023-04-24T16:02:25.423Z,59.88
2023-04-24T16:04:54.922Z,59.75
2023-04-24T16:07:24.062Z,60.03
2023-04-24T16:09:52.335Z,59.70
2023-04-24T16:12:21.545Z,59.81
2023-04-24T16:14:50.021Z,59.88
2023-04-24T16:17:18.223Z,59.98
2023-04-24T16:19:46.175Z,59.99
2023-04-24T16:22:14.030Z,60.10
2023-04-24T16:24:41.692Z,60.34
2023-04-24T16:27:11.087Z,60.37
2023-04-24T16:29:40.819Z,60.38
2023-04-24T16:32:09.207Z,60.55
2023-04-24T16:34:37.461Z,60.54
2023-04-24T16:37:07.257Z,60.25
2023-04-24T16:39:35.350Z,60.40
2023-04-24T16:42:03.919Z,60.58
2023-04-24T16:44:31.859Z,60.52
2023-04-24T16:47:01.559Z,60.61
2023-04-24T16:49:32.143Z,60.60
2023-04-24T16:52:00.589Z,60.63
2023-04-24T16:54:29.837Z,60.50
2023-04-24T16:56:58.286Z,60.59
2023-04-24T16:59:26.059Z,60.81
2023-04-24T17:01:54.336Z,60.89
2023-04-24T17:04:24.201Z,60.62
2023-04-24T17:06:52.332Z,60.80
2023-04-24T17:09:21.222Z,60.87
2023-04-24T17:11:48.987Z,60.77
2023-04-24T17:14:17.462Z,60.89
2023-04-24T17:16:46.239Z,60.97
2023-04-24T17:19:14.238Z,60.97
2023-04-24T17:21:44.137Z,61.06
2023-04-24T17:24:12.108Z,60.84
2023-04-24T17:26:40.342Z,61.14
2023-04-24T17:29:08.670Z,61.12
2023-04-24T17:31:36.501Z,61.09
2023-04-24T17:34:04.246Z,61.21
2023-04-24T17:36:32.489Z,61.15
2023-04-24T17:39:02.148Z,60.32
2023-04-24T17:41:30.465Z,60.26
2023-04-24T17:43:59.138Z,60.77
2023-04-24T17:46:27.579Z,61.17
2023-04-24T17:48:56.011Z,61.87
2023-04-24T17:51:23.640Z,61.81
2023-04-24T17:53:52.188Z,61.82
2023-04-24T17:56:21.940Z,62.04
2023-04-24T17:58:50.080Z,62.18
2023-04-24T18:01:18.265Z,62.33
2023-04-24T18:03:46.238Z,62.33
2023-04-24T18:06:17.344Z,62.91
2023-04-24T18:08:45.297Z,62.79
2023-04-24T18:11:13.336Z,63.10
2023-04-24T18:13:42.531Z,63.15
2023-04-24T18:16:10.327Z,63.23
2023-04-24T18:18:38.509Z,63.29
2023-04-24T18:21:06.510Z,63.57
2023-04-24T18:23:35.199Z,63.72
2023-04-24T18:26:03.145Z,63.92
2023-04-24T18:28:34.508Z,63.85
2023-04-24T18:31:03.879Z,63.92
2023-04-24T18:33:32.074Z,64.08
2023-04-24T18:36:00.564Z,64.30
2023-04-24T18:38:28.908Z,64.42
2023-04-24T18:40:57.210Z,64.70
2023-04-24T18:43:24.915Z,64.60
2023-04-24T18:45:52.681Z,64.47
2023-04-24T18:48:22.684Z,64.31
2023-04-24T18:50:50.527Z,64.45
2023-04-24T18:53:18.267Z,64.47
2023-04-24T18:55:45.897Z,64.49
2023-04-24T18:58:13.672Z,64.54
2023-04-24T19:00:41.436Z,64.51
2023-04-24T19:03:09.823Z,64.67
2023-04-24T19:05:39.159Z,64.50
2023-04-24T19:08:06.970Z,64.71
2023-04-24T19:10:36.036Z,64.84
2023-04-24T19:13:03.867Z,64.97
2023-04-24T19:15:33.919Z,65.10
2023-04-24T19:18:01.605Z,65.16
2023-04-24T19:20:29.593Z,65.41
2023-04-24T19:22:59.192Z,65.40
2023-04-24T19:25:27.320Z,65.34
2023-04-24T19:27:54.982Z,65.25
2023-04-24T19:30:22.839Z,65.65
2023-04-24T19:32:50.973Z,65.55
2023-04-24T19:35:19.138Z,65.61
2023-04-24T19:37:46.872Z,65.54
2023-04-24T19:40:15.858Z,65.41
2023-04-24T19:42:44.766Z,65.40
2023-04-24T19:45:13.864Z,65.24
2023-04-24T19:47:42.250Z,65.02
2023-04-24T19:50:10.681Z,65.16
2023-04-24T19:52:38.620Z,64.90
2023-04-24T19:55:08.268Z,64.98
2023-04-24T19:57:37.471Z,64.98
2023-04-24T20:00:06.146Z,64.87
2023-04-24T20:02:33.882Z,64.87
2023-04-24T20:05:02.307Z,64.88
2023-04-24T20:07:30.457Z,64.87
2023-04-24T20:09:58.534Z,65.13
2023-04-24T20:12:26.951Z,65.30
2023-04-24T20:14:55.994Z,65.07
2023-04-24T20:17:23.734Z,65.03
2023-04-24T20:19:51.681Z,65.01
2023-04-24T20:22:19.409Z,65.03
2023-04-24T20:24:47.433Z,64.96
2023-04-24T20:27:15.215Z,64.90
2023-04-24T20:29:43.242Z,64.82
2023-04-24T20:32:12.432Z,64.82
2023-04-24T20:34:40.216Z,64.89
2023-04-24T20:37:08.309Z,64.88
2023-04-24T20:39:36.926Z,64.99
2023-04-24T20:42:05.828Z,65.21
2023-04-24T20:44:34.040Z,65.16
2023-04-24T20:47:01.691Z,65.13
2023-04-24T20:49:30.959Z,65.31
2023-04-24T20:51:59.543Z,65.25
2023-04-24T20:54:27.440Z,65.26
2023-04-24T20:56:57.433Z,65.16
2023-04-24T20:59:25.923Z,65.08
2023-04-24T21:01:54.380Z,65.30
2023-04-24T21:04:22.477Z,65.06
2023-04-24T21:06:52.125Z,65.07
2023-04-24T21:09:19.960Z,65.04
2023-04-24T21:11:47.594Z,64.92
2023-04-24T21:14:15.573Z,64.92
2023-04-24T21:16:44.351Z,65.08
2023-04-24T21:19:12.036Z,65.00
2023-04-24T21:21:39.835Z,65.20
2023-04-24T21:24:09.118Z,65.02
2023-04-24T21:26:37.201Z,64.90
2023-04-24T21:29:05.059Z,64.75
2023-04-24T21:31:32.840Z,64.84
2023-04-24T21:34:00.962Z,64.58
2023-04-24T21:36:29.651Z,64.71
2023-04-24T21:38:58.317Z,64.75
2023-04-24T21:41:27.507Z,64.80
2023-04-24T21:43:55.616Z,64.75
2023-04-24T21:46:23.536Z,64.76
2023-04-24T21:48:51.242Z,64.73
2023-04-24T21:51:20.448Z,64.85
2023-04-24T21:53:48.514Z,64.64
2023-04-24T21:56:16.483Z,64.64
2023-04-24T21:58:46.826Z,64.64
2023-04-24T22:01:15.612Z,64.73
2023-04-24T22:03:43.419Z,64.89
2023-04-24T22:06:11.416Z,64.74
2023-04-24T22:08:39.381Z,64.64
2023-04-24T22:11:13.544Z,64.06
2023-04-24T22:13:49.540Z,63.46
2023-04-24T22:16:18.101Z,63.30
2023-04-24T22:18:47.750Z,62.98
2023-04-24T22:21:15.859Z,63.29
2023-04-24T22:23:43.444Z,63.24
2023-04-24T22:26:11.095Z,63.76
2023-04-24T22:28:38.758Z,63.66
2023-04-24T22:31:07.836Z,63.82
2023-04-24T22:33:35.535Z,64.20
2023-04-24T22:36:03.257Z,64.16
2023-04-24T22:38:31.040Z,64.12
2023-04-24T22:40:58.776Z,64.14
2023-04-24T22:43:28.159Z,64.30
2023-04-24T22:45:56.311Z,64.14
2023-04-24T22:48:25.886Z,64.26
2023-04-24T22:50:53.503Z,64.09
2023-04-24T22:53:21.351Z,64.32
2023-04-24T22:55:48.943Z,64.29
2023-04-24T22:58:16.755Z,64.30
2023-04-24T23:00:44.717Z,64.28
2023-04-24T23:03:12.614Z,64.33
2023-04-24T23:05:41.916Z,64.27
2023-04-24T23:08:09.542Z,64.40
2023-04-24T23:10:38.092Z,64.27
2023-04-24T23:13:05.841Z,64.28
2023-04-24T23:15:34.597Z,64.37
2023-04-24T23:18:02.385Z,64.32
2023-04-24T23:20:30.051Z,64.34
2023-04-24T23:22:59.001Z,64.26
2023-04-24T23:25:26.629Z,64.35
2023-04-24T23:27:54.265Z,64.31
2023-04-24T23:30:21.907Z,64.68
2023-04-24T23:32:49.659Z,64.36
2023-04-24T23:35:17.449Z,64.45
2023-04-24T23:37:45.630Z,64.47
2023-04-24T23:40:14.774Z,64.63
2023-04-24T23:42:42.368Z,64.31
2023-04-24T23:45:11.615Z,64.48
2023-04-24T23:47:39.331Z,64.29
2023-04-24T23:50:07.713Z,64.57
2023-04-24T23:52:36.047Z,64.11
2023-04-24T23:55:04.560Z,64.14
2023-04-24T23:57:33.527Z,64.26
